Time;durP1;ratioP1;P1;durP2;ratioP2;P2;SDS_P1;SDS_P2;PMS_P1;PMS_P2;Temp;Humidity;BMP_temperature;BMP_pressure;BME280_temperature;BME280_humidity;BME280_pressure;Samples;Min_cycle;Max_cycle;Signal;HPM_P1;HPM_P2
2024/03/04 00:00:16;;;;;;;45.75;26.90;;;7.50;99.90;;;;;;5073211;28;20040;-70
2024/03/04 00:02:42;;;;;;;46.35;26.50;;;7.40;99.90;;;;;;5072941;28;20524;-70
2024/03/04 00:05:08;;;;;;;46.00;26.50;;;7.50;99.90;;;;;;5072080;28;20055;-70
2024/03/04 00:07:33;;;;;;;48.08;25.33;;;7.40;99.90;;;;;;5073189;28;20029;-70
2024/03/04 00:09:59;;;;;;;41.58;24.75;;;7.40;99.90;;;;;;5073135;28;20555;-70
2024/03/04 00:12:25;;;;;;;42.40;25.10;;;7.40;99.90;;;;;;5071375;28;20067;-70
2024/03/04 00:14:51;;;;;;;43.17;26.00;;;7.50;99.90;;;;;;5073182;28;20066;-70
2024/03/04 00:17:17;;;;;;;45.65;26.08;;;7.40;99.90;;;;;;5073037;28;20500;-70
2024/03/04 00:19:42;;;;;;;43.72;25.23;;;7.50;99.90;;;;;;5054801;28;20046;-70
2024/03/04 00:22:09;;;;;;;41.55;24.15;;;7.50;99.90;;;;;;5072317;28;20120;-70
2024/03/04 00:24:34;;;;;;;45.30;23.98;;;7.50;99.90;;;;;;5073132;28;20044;-70
2024/03/04 00:27:00;;;;;;;41.17;24.50;;;7.40;99.90;;;;;;5072995;28;20033;-70
2024/03/04 00:29:28;;;;;;;42.53;24.02;;;7.40;99.90;;;;;;5072461;28;20037;-70
2024/03/04 00:31:54;;;;;;;37.78;23.00;;;7.40;99.90;;;;;;5072407;28;20032;-71
2024/03/04 00:34:20;;;;;;;40.45;23.65;;;7.40;99.90;;;;;;5071540;28;20044;-70
2024/03/04 00:36:46;;;;;;;40.38;23.25;;;7.40;99.90;;;;;;5072555;28;20032;-70
2024/03/04 00:39:12;;;;;;;41.40;23.83;;;7.30;99.90;;;;;;5058621;28;20475;-70
2024/03/04 00:41:37;;;;;;;41.10;25.23;;;7.40;99.90;;;;;;5051954;28;20479;-70
2024/03/04 00:44:04;;;;;;;42.95;24.52;;;7.30;99.90;;;;;;5051488;28;20128;-70
2024/03/04 00:46:30;;;;;;;40.60;24.15;;;7.30;99.90;;;;;;5052597;28;20033;-70
2024/03/04 00:48:56;;;;;;;39.78;23.67;;;7.40;99.90;;;;;;5050865;28;20044;-70
2024/03/04 00:51:21;;;;;;;45.92;25.25;;;7.30;99.90;;;;;;5051859;28;20045;-70
2024/03/04 00:53:47;;;;;;;42.45;25.70;;;7.20;99.90;;;;;;5052587;28;20093;-70
2024/03/04 00:56:14;;;;;;;44.80;25.63;;;7.20;99.90;;;;;;5052370;28;20082;-70
2024/03/04 00:58:40;;;;;;;42.58;25.70;;;7.20;99.90;;;;;;5050267;28;20041;-70
2024/03/04 01:01:06;;;;;;;42.05;25.67;;;7.20;99.90;;;;;;5051832;28;20041;-70
2024/03/04 01:03:32;;;;;;;45.20;25.25;;;7.20;99.90;;;;;;5052148;28;20402;-70
2024/03/04 01:06:01;;;;;;;47.88;27.70;;;7.10;99.90;;;;;;5052010;28;20039;-70
2024/03/04 01:08:28;;;;;;;47.30;27.08;;;7.10;99.90;;;;;;5051909;28;20037;-70
2024/03/04 01:10:54;;;;;;;45.47;26.05;;;7.10;99.90;;;;;;5051773;28;20056;-70
2024/03/04 01:13:21;;;;;;;50.42;28.08;;;7.20;99.90;;;;;;5052050;28;20055;-70
2024/03/04 01:15:47;;;;;;;49.97;28.30;;;7.20;99.90;;;;;;5052059;28;20076;-70
2024/03/04 01:18:13;;;;;;;46.95;27.58;;;7.20;99.90;;;;;;5051551;28;20084;-70
2024/03/04 01:20:40;;;;;;;49.90;27.30;;;7.20;99.90;;;;;;5050927;28;20095;-70
2024/03/04 01:23:05;;;;;;;52.22;31.35;;;7.30;99.90;;;;;;5051569;28;20040;-70
2024/03/04 01:25:31;;;;;;;60.63;32.08;;;7.20;99.90;;;;;;5051746;28;20114;-70
2024/03/04 01:27:57;;;;;;;55.45;31.08;;;7.20;99.90;;;;;;5051896;28;20033;-70
2024/03/04 01:30:24;;;;;;;54.13;30.83;;;7.20;99.90;;;;;;5051472;28;20033;-70
2024/03/04 01:32:50;;;;;;;53.88;29.98;;;7.00;99.90;;;;;;5051107;28;20405;-70
2024/03/04 01:35:16;;;;;;;58.75;32.42;;;7.20;99.90;;;;;;5051605;28;20044;-70
2024/03/04 01:37:43;;;;;;;57.65;31.45;;;7.20;99.90;;;;;;5050599;28;20412;-70
2024/03/04 01:40:09;;;;;;;57.80;31.42;;;7.20;99.90;;;;;;5051348;28;20412;-70
2024/03/04 01:42:34;;;;;;;58.15;32.38;;;7.10;99.90;;;;;;5051133;28;20036;-70
2024/03/04 01:45:00;;;;;;;58.85;31.23;;;7.10;99.90;;;;;;5051560;28;20044;-70
2024/03/04 01:47:26;;;;;;;55.08;31.48;;;7.10;99.90;;;;;;5051459;28;20039;-70
2024/03/04 01:49:54;;;;;;;62.90;32.70;;;7.20;99.90;;;;;;5051166;28;20059;-70
2024/03/04 01:52:23;;;;;;;60.33;31.95;;;7.10;99.90;;;;;;5051003;28;20041;-70
2024/03/04 01:54:53;;;;;;;58.05;31.15;;;7.20;99.90;;;;;;5051490;28;20033;-70
2024/03/04 01:57:19;;;;;;;59.58;30.95;;;7.20;99.90;;;;;;5051525;28;20048;-70
2024/03/04 01:59:48;;;;;;;58.63;31.75;;;7.10;99.90;;;;;;5051092;28;20033;-70
2024/03/04 02:02:13;;;;;;;58.00;30.92;;;7.20;99.90;;;;;;5050739;28;20037;-70
2024/03/04 02:04:41;;;;;;;54.47;31.85;;;7.10;99.90;;;;;;5051572;28;20045;-70
2024/03/04 02:07:07;;;;;;;57.85;31.50;;;7.10;99.90;;;;;;5051171;28;20033;-70
2024/03/04 02:09:35;;;;;;;57.00;30.38;;;7.00;99.90;;;;;;5050588;28;20048;-70
2024/03/04 02:12:03;;;;;;;51.05;28.63;;;7.00;99.90;;;;;;5055037;28;20049;-70
2024/03/04 02:14:30;;;;;;;51.03;29.73;;;7.00;99.90;;;;;;5054125;28;20075;-70
2024/03/04 02:16:56;;;;;;;52.33;29.48;;;7.10;99.90;;;;;;5055293;28;20119;-70
2024/03/04 02:19:21;;;;;;;54.05;29.83;;;6.90;99.90;;;;;;5055416;28;20548;-70
2024/03/04 02:22:04;;;;;;;55.35;32.83;;;7.00;99.90;;;;;;5055004;28;20424;-70
2024/03/04 02:24:29;;;;;;;57.13;31.60;;;6.80;99.90;;;;;;5055214;28;20784;-70
2024/03/04 02:26:55;;;;;;;57.17;31.48;;;6.80;99.90;;;;;;5053961;28;20032;-70
2024/03/04 02:29:21;;;;;;;55.90;30.88;;;6.80;99.90;;;;;;5054724;28;20098;-70
2024/03/04 02:31:47;;;;;;;71.10;35.00;;;6.70;99.90;;;;;;5054898;28;20041;-70
2024/03/04 02:34:13;;;;;;;62.30;32.28;;;6.80;99.90;;;;;;5055325;28;20062;-70
2024/03/04 02:36:40;;;;;;;62.35;35.20;;;6.70;99.90;;;;;;5054974;28;20493;-70
2024/03/04 02:39:10;;;;;;;64.22;33.17;;;6.80;99.90;;;;;;5054799;28;20496;-70
2024/03/04 02:41:38;;;;;;;62.75;35.25;;;6.90;99.90;;;;;;5054699;28;20133;-70
2024/03/04 02:44:04;;;;;;;59.42;32.38;;;6.80;99.90;;;;;;5054986;28;20044;-70
2024/03/04 02:46:30;;;;;;;61.88;32.20;;;6.90;99.90;;;;;;5054999;28;20041;-70
2024/03/04 02:48:56;;;;;;;57.53;31.45;;;6.80;99.90;;;;;;5054554;28;20493;-70
2024/03/04 02:51:21;;;;;;;56.05;32.03;;;6.70;99.90;;;;;;5053266;28;20408;-70
2024/03/04 02:53:47;;;;;;;60.78;31.60;;;6.80;99.90;;;;;;5054677;28;20047;-70
2024/03/04 02:56:12;;;;;;;56.17;29.83;;;6.70;99.90;;;;;;5054495;28;20060;-70
2024/03/04 02:58:38;;;;;;;55.72;30.92;;;6.60;99.90;;;;;;5054551;28;20037;-69
2024/03/04 03:01:04;;;;;;;70.10;38.00;;;6.50;99.90;;;;;;5052988;28;20133;-70
2024/03/04 03:03:29;;;;;;;69.97;36.95;;;6.60;99.90;;;;;;5054506;28;20065;-70
2024/03/04 03:05:56;;;;;;;67.32;36.65;;;6.70;99.90;;;;;;5054483;28;20522;-70
2024/03/04 03:08:21;;;;;;;61.88;32.55;;;6.60;99.90;;;;;;5053016;28;20072;-69
2024/03/04 03:10:47;;;;;;;61.65;32.25;;;6.70;99.90;;;;;;5053948;28;20492;-70
2024/03/04 03:13:13;;;;;;;61.30;33.65;;;6.80;99.90;;;;;;5053057;28;20045;-70
2024/03/04 03:15:38;;;;;;;64.13;32.15;;;6.60;99.90;;;;;;5054423;28;20393;-70
2024/03/04 03:18:07;;;;;;;62.22;31.95;;;6.60;99.90;;;;;;5052905;28;20049;-70
2024/03/04 03:20:33;;;;;;;64.60;32.28;;;6.50;99.90;;;;;;5052285;28;20048;-70
2024/03/04 03:22:59;;;;;;;60.10;30.98;;;6.50;99.90;;;;;;5053632;28;20037;-70
2024/03/04 03:25:26;;;;;;;59.53;32.08;;;6.50;99.90;;;;;;5052668;28;20036;-70
2024/03/04 03:27:52;;;;;;;58.22;29.90;;;6.40;99.90;;;;;;5054219;28;20119;-70
2024/03/04 03:30:18;;;;;;;59.00;31.25;;;6.40;99.90;;;;;;5053691;28;20060;-70
2024/03/04 03:32:45;;;;;;;54.03;29.67;;;6.30;99.90;;;;;;5053421;28;20033;-70
2024/03/04 03:35:11;;;;;;;60.72;31.00;;;6.30;99.90;;;;;;5053947;28;20108;-70
2024/03/04 03:37:36;;;;;;;53.95;28.10;;;6.30;99.90;;;;;;5053885;28;20129;-70
2024/03/04 03:40:04;;;;;;;50.78;26.75;;;6.40;99.90;;;;;;5052105;28;20496;-70
2024/03/04 03:42:32;;;;;;;49.47;26.33;;;6.40;99.90;;;;;;5053504;28;20536;-70
2024/03/04 03:44:58;;;;;;;47.03;27.00;;;6.20;99.90;;;;;;5052793;28;20409;-70
2024/03/04 03:47:23;;;;;;;48.97;26.20;;;6.20;99.90;;;;;;5052469;28;20048;-70
2024/03/04 03:49:49;;;;;;;55.97;29.10;;;6.30;99.90;;;;;;5052211;28;20037;-70
2024/03/04 03:52:15;;;;;;;57.97;31.98;;;6.30;99.90;;;;;;5053142;28;20037;-70
2024/03/04 03:54:40;;;;;;;63.22;32.97;;;6.30;99.90;;;;;;5053680;28;20443;-70
2024/03/04 03:57:06;;;;;;;76.80;35.90;;;6.10;99.90;;;;;;5053484;28;20463;-70
2024/03/04 03:59:32;;;;;;;73.63;36.88;;;6.20;99.90;;;;;;5051984;28;20036;-70
2024/03/04 04:01:57;;;;;;;89.30;41.10;;;6.10;99.90;;;;;;5052933;28;20086;-70
2024/03/04 04:04:25;;;;;;;92.00;44.70;;;6.10;99.90;;;;;;5053355;28;20485;-70
2024/03/04 04:06:51;;;;;;;110.10;48.25;;;6.20;99.90;;;;;;5053208;28;20105;-70
2024/03/04 04:09:17;;;;;;;140.18;48.45;;;6.20;99.90;;;;;;5052796;28;20078;-70
2024/03/04 04:11:43;;;;;;;100.03;48.03;;;6.40;99.90;;;;;;5052908;28;20112;-70
2024/03/04 04:14:10;;;;;;;102.30;47.42;;;6.40;99.90;;;;;;5053322;28;20041;-70
2024/03/04 04:16:36;;;;;;;141.10;49.33;;;6.30;99.90;;;;;;5053082;28;20424;-70
2024/03/04 04:19:04;;;;;;;114.18;46.97;;;6.30;99.90;;;;;;5052828;28;20037;-70
2024/03/04 04:21:30;;;;;;;125.32;46.60;;;6.60;99.90;;;;;;5052537;28;20098;-70
2024/03/04 04:23:56;;;;;;;96.32;43.15;;;6.50;99.90;;;;;;5052801;28;20037;-70
2024/03/04 04:26:23;;;;;;;152.13;49.40;;;6.30;99.90;;;;;;5052954;28;20044;-70
2024/03/04 04:28:49;;;;;;;127.07;44.25;;;6.60;99.90;;;;;;5051542;28;20099;-70
2024/03/04 04:31:22;;;;;;;122.07;45.47;;;6.30;99.90;;;;;;5051248;28;20049;-70
2024/03/04 04:33:49;;;;;;;135.63;44.45;;;6.30;99.90;;;;;;5050688;28;20047;-70
2024/03/04 04:36:16;;;;;;;79.80;41.05;;;6.20;99.90;;;;;;5051501;28;20408;-70
2024/03/04 04:38:42;;;;;;;206.40;48.13;;;6.30;99.90;;;;;;5052582;28;20071;-70
2024/03/04 04:41:08;;;;;;;81.03;41.08;;;6.50;99.90;;;;;;5052407;28;20041;-70
2024/03/04 04:43:33;;;;;;;193.55;47.30;;;6.40;99.90;;;;;;5051205;28;20094;-70
2024/03/04 04:45:59;;;;;;;85.70;42.15;;;6.30;99.90;;;;;;5052450;28;20120;-70
2024/03/04 04:48:24;;;;;;;170.27;46.72;;;6.30;99.90;;;;;;5052031;28;20041;-70
2024/03/04 04:50:50;;;;;;;168.05;47.10;;;6.40;99.90;;;;;;5051873;28;20044;-70
2024/03/04 04:53:16;;;;;;;113.65;43.72;;;6.20;99.90;;;;;;5052537;28;20073;-70
2024/03/04 04:55:41;;;;;;;121.40;45.20;;;6.10;99.90;;;;;;5051335;28;20095;-70
2024/03/04 04:58:07;;;;;;;135.27;42.95;;;6.30;99.90;;;;;;5052417;28;20175;-70
2024/03/04 05:00:33;;;;;;;78.03;40.38;;;6.20;99.90;;;;;;5051990;28;20511;-70
2024/03/04 05:02:58;;;;;;;73.32;40.17;;;6.30;99.90;;;;;;5051648;28;20613;-70
2024/03/04 05:05:24;;;;;;;84.65;40.22;;;6.30;99.90;;;;;;5050779;28;20048;-70
2024/03/04 05:07:50;;;;;;;84.63;40.25;;;6.50;99.90;;;;;;5052329;28;20033;-70
2024/03/04 05:10:15;;;;;;;79.43;39.78;;;6.40;99.90;;;;;;5051865;28;20037;-70
2024/03/04 05:12:41;;;;;;;86.65;40.13;;;6.20;99.90;;;;;;5051644;28;20079;-70
2024/03/04 05:15:08;;;;;;;73.78;38.22;;;6.40;99.90;;;;;;5050963;28;20040;-70
2024/03/04 05:17:36;;;;;;;75.28;40.38;;;6.30;99.90;;;;;;5050753;28;20041;-70
2024/03/04 05:20:06;;;;;;;77.90;41.30;;;6.30;99.90;;;;;;5050203;28;20451;-70
2024/03/04 05:22:32;;;;;;;76.13;40.63;;;6.40;99.90;;;;;;5051429;28;20135;-70
2024/03/04 05:24:58;;;;;;;75.68;40.17;;;6.40;99.90;;;;;;5051915;28;20175;-70
2024/03/04 05:27:24;;;;;;;78.85;40.92;;;6.40;99.90;;;;;;5050520;28;20061;-70
2024/03/04 05:29:50;;;;;;;73.18;39.25;;;6.60;99.90;;;;;;5051483;28;20037;-70
2024/03/04 05:32:15;;;;;;;76.30;39.20;;;6.50;99.90;;;;;;5051252;28;20527;-70
2024/03/04 05:34:43;;;;;;;76.22;38.40;;;6.60;99.90;;;;;;5051536;28;20041;-70
2024/03/04 05:37:11;;;;;;;78.63;39.35;;;6.40;99.90;;;;;;5050495;28;20041;-70
2024/03/04 05:39:37;;;;;;;80.60;40.50;;;6.80;99.90;;;;;;5051536;28;20135;-70
2024/03/04 05:42:03;;;;;;;75.07;40.53;;;6.50;99.90;;;;;;5049794;28;20037;-70
2024/03/04 05:44:29;;;;;;;75.80;39.78;;;6.80;99.90;;;;;;5051395;28;20416;-70
2024/03/04 05:46:54;;;;;;;92.88;40.72;;;6.70;99.90;;;;;;5051404;28;20503;-70
2024/03/04 05:49:20;;;;;;;81.60;39.08;;;6.60;99.90;;;;;;5049645;28;20045;-70
2024/03/04 05:51:46;;;;;;;78.50;40.35;;;6.60;99.90;;;;;;5049613;28;20037;-70
2024/03/04 05:54:11;;;;;;;79.13;39.80;;;6.70;99.90;;;;;;5050486;28;20053;-70
2024/03/04 05:56:45;;;;;;;84.88;40.65;;;6.60;99.90;;;;;;5050384;28;20681;-70
2024/03/04 05:59:11;;;;;;;77.00;38.85;;;6.70;99.90;;;;;;5049857;28;20493;-70
2024/03/04 06:01:38;;;;;;;78.18;39.92;;;6.80;99.90;;;;;;5049804;28;20436;-70
2024/03/04 06:04:04;;;;;;;74.43;40.80;;;6.70;99.90;;;;;;5049987;28;20037;-70
2024/03/04 06:06:30;;;;;;;77.72;40.83;;;6.80;99.90;;;;;;5051424;28;20072;-70
2024/03/04 06:08:58;;;;;;;91.45;40.03;;;6.80;99.90;;;;;;5055751;28;20086;-71
2024/03/04 06:11:26;;;;;;;85.38;40.45;;;6.90;99.90;;;;;;5070874;28;20041;-71
2024/03/04 06:13:52;;;;;;;84.45;41.53;;;6.80;99.90;;;;;;5071381;28;20221;-70
2024/03/04 06:16:17;;;;;;;92.20;43.45;;;6.80;99.90;;;;;;5071065;28;20559;-71
2024/03/04 06:18:43;;;;;;;90.10;43.67;;;6.90;99.90;;;;;;5069584;28;20040;-71
2024/03/04 06:21:09;;;;;;;107.95;45.95;;;6.90;99.90;;;;;;5070923;28;20036;-71
2024/03/04 06:23:35;;;;;;;88.55;42.13;;;6.80;99.90;;;;;;5070804;28;20044;-71
2024/03/04 06:26:01;;;;;;;86.10;41.80;;;6.90;99.90;;;;;;5066366;28;20434;-71
2024/03/04 06:28:27;;;;;;;101.70;44.72;;;6.90;99.90;;;;;;5068395;28;20126;-71
2024/03/04 06:30:52;;;;;;;90.63;44.00;;;6.90;99.90;;;;;;5069822;28;20051;-71
2024/03/04 06:33:18;;;;;;;103.95;43.65;;;6.90;99.90;;;;;;5070699;28;20112;-71
2024/03/04 06:35:44;;;;;;;102.20;44.38;;;6.90;99.90;;;;;;5069435;28;20106;-71
2024/03/04 06:38:09;;;;;;;96.93;43.72;;;7.00;99.90;;;;;;5069344;28;20048;-71
2024/03/04 06:40:35;;;;;;;104.28;44.33;;;6.80;99.90;;;;;;5068927;28;20048;-71
2024/03/04 06:43:00;;;;;;;104.82;46.83;;;7.10;99.90;;;;;;5069189;28;20037;-71
2024/03/04 06:45:26;;;;;;;119.40;46.65;;;6.90;99.90;;;;;;5069794;28;20036;-71
2024/03/04 06:47:53;;;;;;;100.22;44.30;;;7.00;99.90;;;;;;5070986;28;20086;-71
2024/03/04 06:50:18;;;;;;;95.72;44.08;;;6.90;99.90;;;;;;5069875;28;20403;-71
2024/03/04 06:52:44;;;;;;;102.50;45.50;;;7.00;99.90;;;;;;5070169;28;20036;-71
2024/03/04 06:55:10;;;;;;;107.07;47.10;;;7.10;99.90;;;;;;5070945;28;20043;-71
2024/03/04 06:57:35;;;;;;;99.30;44.10;;;7.20;99.90;;;;;;5074659;28;20078;-71
2024/03/04 07:00:04;;;;;;;105.88;46.20;;;7.00;99.90;;;;;;5073983;28;20416;-71
2024/03/04 07:02:29;;;;;;;109.28;47.03;;;7.10;99.90;;;;;;5072840;28;20466;-71
2024/03/04 07:04:55;;;;;;;113.13;47.35;;;7.20;99.90;;;;;;5074379;28;20068;-71
2024/03/04 07:07:21;;;;;;;114.10;49.17;;;7.10;99.90;;;;;;5072639;28;20131;-71
2024/03/04 07:09:46;;;;;;;104.88;46.25;;;7.00;99.90;;;;;;5074178;28;20032;-71
2024/03/04 07:12:12;;;;;;;116.28;48.65;;;7.10;99.90;;;;;;5073848;28;20044;-71
2024/03/04 07:14:37;;;;;;;108.93;50.15;;;7.10;99.90;;;;;;5073030;28;20043;-71
2024/03/04 07:17:03;;;;;;;115.78;48.25;;;7.10;99.90;;;;;;5073540;28;20043;-71
2024/03/04 07:19:29;;;;;;;111.10;48.97;;;7.20;99.90;;;;;;5072141;28;20408;-71
2024/03/04 07:21:54;;;;;;;106.82;46.72;;;7.00;99.90;;;;;;5072212;28;20127;-71
2024/03/04 07:24:20;;;;;;;107.97;47.13;;;7.00;99.90;;;;;;5070360;28;20408;-71
2024/03/04 07:26:46;;;;;;;121.03;51.17;;;7.20;99.90;;;;;;5061640;28;20053;-72
2024/03/04 07:29:11;;;;;;;108.40;48.90;;;7.20;99.90;;;;;;5070717;28;20512;-71
2024/03/04 07:31:37;;;;;;;130.38;49.72;;;7.10;99.90;;;;;;5064993;28;20573;-71
2024/03/04 07:34:02;;;;;;;126.32;47.78;;;7.30;99.90;;;;;;5073304;28;20123;-71
2024/03/04 07:36:28;;;;;;;115.93;49.10;;;7.20;99.90;;;;;;5065193;28;20073;-71
2024/03/04 07:38:54;;;;;;;129.25;49.92;;;7.20;99.90;;;;;;5073356;28;20277;-71
2024/03/04 07:41:19;;;;;;;120.18;48.58;;;7.30;99.90;;;;;;5073139;28;20041;-71
2024/03/04 07:43:45;;;;;;;110.70;47.13;;;7.30;99.90;;;;;;5073646;28;20040;-71
2024/03/04 07:46:11;;;;;;;123.85;51.30;;;7.20;99.90;;;;;;5073824;28;20090;-71
2024/03/04 07:48:36;;;;;;;124.25;48.33;;;7.50;99.90;;;;;;5073206;28;20493;-70
2024/03/04 07:51:02;;;;;;;112.13;45.08;;;7.30;99.90;;;;;;5073180;28;20040;-71
2024/03/04 07:53:28;;;;;;;110.80;45.10;;;7.40;99.90;;;;;;5073549;28;20040;-70
2024/03/04 07:55:53;;;;;;;107.97;44.33;;;7.40;99.90;;;;;;5073516;28;20059;-70
2024/03/04 07:58:19;;;;;;;107.93;43.72;;;7.50;99.90;;;;;;5072822;28;20040;-70
2024/03/04 08:00:44;;;;;;;102.00;43.38;;;7.50;99.90;;;;;;5073240;28;20404;-70
2024/03/04 08:03:10;;;;;;;98.95;41.78;;;7.40;99.90;;;;;;5072854;28;20094;-70
2024/03/04 08:05:36;;;;;;;95.55;41.90;;;7.40;99.90;;;;;;5073449;28;20037;-70
2024/03/04 08:08:02;;;;;;;103.75;44.85;;;7.40;99.90;;;;;;5073211;28;20166;-70
2024/03/04 08:10:28;;;;;;;95.32;42.90;;;7.30;99.90;;;;;;5072675;28;20129;-70
2024/03/04 08:12:53;;;;;;;90.07;40.42;;;7.30;99.90;;;;;;5072582;28;20086;-71
2024/03/04 08:15:19;;;;;;;95.32;43.65;;;7.30;99.90;;;;;;5072021;28;20036;-71
2024/03/04 08:17:45;;;;;;;93.57;42.15;;;7.40;99.90;;;;;;5073067;28;20051;-71
2024/03/04 08:20:11;;;;;;;90.05;41.10;;;7.40;99.90;;;;;;5072596;28;20044;-71
2024/03/04 08:22:37;;;;;;;94.05;42.70;;;7.20;99.90;;;;;;5072562;28;20041;-71
2024/03/04 08:25:04;;;;;;;77.88;38.13;;;7.20;99.90;;;;;;5072996;28;20062;-70
2024/03/04 08:27:29;;;;;;;89.30;38.85;;;7.30;99.90;;;;;;5072790;28;20621;-70
2024/03/04 08:29:55;;;;;;;88.32;41.00;;;7.40;99.90;;;;;;5072429;28;20028;-71
2024/03/04 08:32:21;;;;;;;89.35;40.22;;;7.30;99.90;;;;;;5072305;28;20540;-71
2024/03/04 08:34:47;;;;;;;87.20;40.08;;;7.20;99.90;;;;;;5072669;28;20485;-70
2024/03/04 08:37:13;;;;;;;113.43;42.28;;;7.40;99.90;;;;;;5071408;28;20044;-70
2024/03/04 08:39:39;;;;;;;83.57;40.15;;;7.40;99.90;;;;;;5072118;28;20044;-70
2024/03/04 08:42:05;;;;;;;81.35;38.75;;;7.20;99.90;;;;;;5071756;28;20044;-71
2024/03/04 08:44:31;;;;;;;88.15;40.55;;;7.40;99.90;;;;;;5072665;28;20062;-70
2024/03/04 08:46:57;;;;;;;99.30;41.22;;;7.40;99.90;;;;;;5072241;28;20036;-71
2024/03/04 08:49:23;;;;;;;88.32;40.00;;;7.30;99.90;;;;;;5070370;28;20123;-71
2024/03/04 08:51:49;;;;;;;92.25;38.78;;;7.30;99.90;;;;;;5070497;28;20564;-71
2024/03/04 08:54:15;;;;;;;103.22;41.17;;;7.60;99.90;;;;;;5072490;28;20120;-71
2024/03/04 08:56:41;;;;;;;93.60;42.28;;;7.40;99.90;;;;;;5071136;28;20068;-71
2024/03/04 08:59:06;;;;;;;101.20;41.92;;;7.50;99.90;;;;;;5072075;28;20384;-70
2024/03/04 09:01:32;;;;;;;109.78;40.83;;;7.70;99.90;;;;;;5070576;28;20048;-71
2024/03/04 09:03:58;;;;;;;106.60;42.03;;;7.70;99.90;;;;;;5071086;28;20044;-71
2024/03/04 09:06:25;;;;;;;102.00;42.92;;;7.70;99.90;;;;;;5070945;28;20401;-70
2024/03/04 09:08:51;;;;;;;129.30;47.08;;;7.90;99.90;;;;;;5070459;28;20555;-71
2024/03/04 09:11:17;;;;;;;102.15;43.50;;;7.90;99.90;;;;;;5071813;28;20036;-71
2024/03/04 09:13:43;;;;;;;116.05;42.47;;;8.00;99.90;;;;;;5054170;28;20411;-71
2024/03/04 09:16:09;;;;;;;112.60;46.03;;;8.00;99.90;;;;;;5072137;28;20411;-71
2024/03/04 09:18:38;;;;;;;107.95;41.58;;;8.10;99.90;;;;;;5069814;28;20101;-71
2024/03/04 09:21:07;;;;;;;97.88;40.60;;;8.00;99.90;;;;;;5070468;28;20144;-71
2024/03/04 09:23:33;;;;;;;106.65;40.63;;;8.10;99.90;;;;;;5070473;28;20094;-71
2024/03/04 09:25:59;;;;;;;104.45;42.30;;;8.30;99.90;;;;;;5071807;28;20119;-71
2024/03/04 09:28:24;;;;;;;111.40;42.65;;;8.20;99.90;;;;;;5069971;28;20036;-71
2024/03/04 09:30:50;;;;;;;103.95;40.75;;;8.30;99.90;;;;;;5069951;28;20033;-71
2024/03/04 09:33:16;;;;;;;96.28;39.97;;;8.40;99.90;;;;;;5070450;28;20412;-71
2024/03/04 09:35:42;;;;;;;93.75;39.72;;;8.40;99.90;;;;;;5071582;28;20411;-71
2024/03/04 09:38:07;;;;;;;95.60;40.35;;;8.50;99.90;;;;;;5071571;28;20046;-71
2024/03/04 09:40:34;;;;;;;89.40;37.28;;;8.30;99.90;;;;;;5071066;28;20522;-71
2024/03/04 09:43:01;;;;;;;97.47;39.47;;;8.60;99.90;;;;;;5071178;28;20040;-71
2024/03/04 09:45:28;;;;;;;94.07;40.20;;;8.60;99.90;;;;;;5071666;28;20051;-71
2024/03/04 09:47:59;;;;;;;81.72;37.17;;;8.70;99.90;;;;;;5071426;28;20446;-71
2024/03/04 09:50:25;;;;;;;88.53;38.90;;;8.60;99.90;;;;;;5070883;28;20524;-70
2024/03/04 09:52:54;;;;;;;90.35;39.88;;;8.80;99.90;;;;;;5069724;28;20040;-71
2024/03/04 09:55:20;;;;;;;97.15;41.45;;;8.80;99.90;;;;;;5071308;28;20044;-70
2024/03/04 09:57:46;;;;;;;90.32;40.25;;;8.90;99.90;;;;;;5071426;28;20098;-70
2024/03/04 10:00:16;;;;;;;81.95;38.00;;;8.90;99.90;;;;;;5069991;28;20047;-71
2024/03/04 10:02:45;;;;;;;96.93;40.92;;;8.80;99.90;;;;;;5070858;28;20056;-71
2024/03/04 10:05:14;;;;;;;91.32;38.90;;;8.80;99.90;;;;;;5071297;28;20047;-71
2024/03/04 10:07:40;;;;;;;84.35;37.60;;;8.90;99.90;;;;;;5070910;28;20045;-71
2024/03/04 10:10:10;;;;;;;92.45;38.40;;;8.80;99.90;;;;;;5069773;28;20476;-71
2024/03/04 10:12:36;;;;;;;91.57;38.85;;;9.00;99.90;;;;;;5070554;28;20036;-71
2024/03/04 10:15:09;;;;;;;82.32;37.13;;;8.90;99.90;;;;;;5070035;28;20044;-71
2024/03/04 10:17:35;;;;;;;;;;;8.90;99.90;;;;;;5070498;28;20040;-70
2024/03/04 10:20:05;;;;;;;79.93;35.75;;;9.00;99.90;;;;;;5070744;28;19969;-71
2024/03/04 10:22:32;;;;;;;87.40;39.05;;;9.10;99.90;;;;;;5070678;28;20098;-71
2024/03/04 10:25:06;;;;;;;82.50;37.72;;;9.10;99.90;;;;;;5069798;28;20089;-71
2024/03/04 10:27:34;;;;;;;80.07;39.10;;;9.10;99.90;;;;;;5053496;28;20049;-71
2024/03/04 10:30:14;;;;;;;80.57;37.97;;;9.10;99.90;;;;;;5068946;28;20032;-71
2024/03/04 10:32:52;;;;;;;78.70;36.90;;;9.20;99.90;;;;;;5073181;28;20052;-71
2024/03/04 10:35:18;;;;;;;79.90;37.80;;;9.30;99.90;;;;;;5073699;28;20037;-71
2024/03/04 10:37:45;;;;;;;78.68;36.42;;;9.30;99.90;;;;;;5075129;28;20052;-71
2024/03/04 10:40:11;;;;;;;79.32;35.58;;;9.30;99.90;;;;;;5074247;28;20514;-71
2024/03/04 10:42:42;;;;;;;75.97;36.75;;;9.30;99.90;;;;;;5074232;28;20040;-71
2024/03/04 10:45:08;;;;;;;78.22;36.40;;;9.30;99.90;;;;;;5074722;28;20040;-71
2024/03/04 10:47:35;;;;;;;81.88;37.80;;;9.20;99.90;;;;;;5074575;28;20043;-71
2024/03/04 10:50:04;;;;;;;73.75;36.30;;;9.30;99.90;;;;;;5073275;28;20510;-71
2024/03/04 10:52:30;;;;;;;72.00;36.63;;;9.20;99.90;;;;;;5073044;28;20051;-71
2024/03/04 10:54:55;;;;;;;75.10;35.17;;;9.20;99.90;;;;;;5074723;28;20105;-71
2024/03/04 10:57:28;;;;;;;75.97;36.80;;;9.20;99.90;;;;;;5073268;28;20500;-71
2024/03/04 10:59:56;;;;;;;80.00;36.30;;;9.20;99.90;;;;;;5073171;28;20395;-71
2024/03/04 11:03:09;;;;;;;78.32;36.35;;;9.10;99.90;;;;;;5072747;28;20825;-71
2024/03/04 11:05:39;;;;;;;75.43;37.85;;;9.10;99.90;;;;;;5069940;28;20053;-71
2024/03/04 11:08:27;;;;;;;75.32;36.42;;;9.10;99.90;;;;;;5073043;28;20059;-71
2024/03/04 11:11:10;;;;;;;75.85;37.72;;;9.10;99.90;;;;;;5073946;28;20076;-71
2024/03/04 11:13:35;;;;;;;78.97;34.42;;;9.10;99.90;;;;;;5074551;28;20082;-71
2024/03/04 11:16:23;;;;;;;80.97;37.40;;;9.20;99.90;;;;;;5074307;28;20119;-71
2024/03/04 11:18:51;;;;;;;91.53;39.38;;;9.20;99.90;;;;;;5074067;28;20040;-71
2024/03/04 11:21:19;;;;;;;87.90;39.53;;;9.20;99.90;;;;;;5073854;28;20507;-71
2024/03/04 11:23:46;;;;;;;76.32;39.40;;;9.20;99.90;;;;;;5074192;28;20052;-71
2024/03/04 11:26:13;;;;;;;83.63;37.15;;;9.20;99.90;;;;;;5074247;28;20119;-71
2024/03/04 11:28:39;;;;;;;90.63;38.72;;;9.30;99.90;;;;;;5073828;28;20369;-71
2024/03/04 11:31:11;;;;;;;86.40;38.67;;;9.20;99.90;;;;;;5073468;28;20036;-71
2024/03/04 11:33:38;;;;;;;78.97;34.63;;;9.30;99.90;;;;;;5065495;28;20036;-71
2024/03/04 11:36:05;;;;;;;77.75;35.33;;;9.30;99.90;;;;;;5073476;28;20519;-71
2024/03/04 11:38:37;;;;;;;86.20;37.95;;;9.40;99.90;;;;;;5073609;28;20412;-71
2024/03/04 11:41:04;;;;;;;80.88;36.65;;;9.50;99.90;;;;;;5072993;28;20127;-72
2024/03/04 11:43:47;;;;;;;82.43;36.88;;;9.60;99.90;;;;;;5074061;28;20414;-72
2024/03/04 11:46:18;;;;;;;84.53;37.30;;;9.70;99.90;;;;;;5074141;28;20051;-72
2024/03/04 11:48:46;;;;;;;85.82;36.33;;;9.70;99.90;;;;;;5072148;28;20547;-72
2024/03/04 11:51:12;;;;;;;89.82;35.95;;;9.90;99.90;;;;;;5072020;28;20036;-71
2024/03/04 11:53:43;;;;;;;79.55;35.05;;;9.80;99.90;;;;;;5073695;28;20040;-72
2024/03/04 11:56:09;;;;;;;76.45;34.20;;;9.70;99.90;;;;;;5073852;28;20074;-72
2024/03/04 11:58:34;;;;;;;86.63;33.22;;;9.70;99.90;;;;;;5071866;28;20045;-72
2024/03/04 12:01:00;;;;;;;75.57;32.35;;;9.70;99.90;;;;;;5071641;28;20051;-72
2024/03/04 12:03:29;;;;;;;73.80;31.80;;;9.80;99.90;;;;;;5073510;28;20040;-72
2024/03/04 12:05:56;;;;;;;76.40;33.38;;;9.70;99.90;;;;;;5073417;28;20044;-72
2024/03/04 12:08:22;;;;;;;77.05;32.83;;;9.60;99.90;;;;;;5071294;28;20040;-72
2024/03/04 12:10:48;;;;;;;73.00;31.52;;;9.60;99.90;;;;;;5071625;28;20040;-72
2024/03/04 12:13:13;;;;;;;70.40;31.30;;;9.60;99.90;;;;;;5071740;28;20044;-72
2024/03/04 12:15:41;;;;;;;67.65;29.05;;;9.60;99.90;;;;;;5073157;28;20503;-72
2024/03/04 12:18:08;;;;;;;65.40;30.00;;;9.50;99.90;;;;;;5073183;28;20045;-72
2024/03/04 12:20:33;;;;;;;67.55;27.60;;;9.50;99.90;;;;;;5071548;28;20040;-72
2024/03/04 12:23:03;;;;;;;76.57;31.25;;;9.50;99.90;;;;;;5070387;28;20041;-72
2024/03/04 12:25:28;;;;;;;66.50;30.42;;;9.40;99.90;;;;;;5072434;28;20515;-72
2024/03/04 12:27:55;;;;;;;77.93;31.42;;;9.40;99.90;;;;;;5071247;28;20036;-72
2024/03/04 12:30:22;;;;;;;70.13;29.30;;;9.50;99.90;;;;;;5068376;28;20441;-72
2024/03/04 12:32:50;;;;;;;61.95;27.60;;;9.40;99.90;;;;;;5071186;28;20041;-72